createdAt,value
2023-05-18T00:04:38.785Z,7.17
2023-05-18T00:09:42.346Z,7.47
2023-05-18T00:14:46.450Z,7.97
2023-05-18T00:19:51.929Z,9.10
2023-05-18T00:24:55.696Z,7.33
2023-05-18T00:29:59.193Z,6.70
2023-05-18T00:35:04.151Z,11.13
2023-05-18T00:40:09.336Z,6.67
2023-05-18T00:45:13.446Z,5.93
2023-05-18T00:50:18.936Z,7.03
2023-05-18T00:55:23.168Z,10.83
2023-05-18T01:00:28.502Z,7.37
2023-05-18T01:05:34.843Z,11.93
2023-05-18T01:10:41.111Z,9.10
2023-05-18T01:15:46.123Z,11.80
2023-05-18T01:20:59.683Z,14.27
2023-05-18T01:26:15.348Z,9.23
2023-05-18T01:31:20.079Z,8.03
2023-05-18T01:36:24.096Z,7.73
2023-05-18T01:41:31.814Z,4.50
2023-05-18T01:46:44.609Z,8.80
2023-05-18T01:51:49.561Z,5.33
2023-05-18T01:56:57.963Z,8.67
2023-05-18T02:02:02.613Z,6.00
2023-05-18T02:07:06.595Z,7.17
2023-05-18T02:12:11.740Z,7.33
2023-05-18T02:17:15.899Z,6.87
2023-05-18T02:22:21.299Z,8.97
2023-05-18T02:27:27.148Z,11.93
2023-05-18T02:32:32.683Z,9.07
2023-05-18T02:37:39.899Z,8.33
2023-05-18T02:42:45.841Z,10.10
2023-05-18T02:47:49.751Z,8.20
2023-05-18T02:52:53.538Z,7.00
2023-05-18T02:57:58.684Z,8.50
2023-05-18T03:03:21.276Z,6.83
2023-05-18T03:08:27.281Z,6.93
2023-05-18T03:13:33.119Z,9.47
2023-05-18T03:18:37.311Z,10.23
2023-05-18T03:23:41.803Z,7.57
2023-05-18T03:28:47.119Z,8.80
2023-05-18T03:33:52.149Z,7.93
2023-05-18T03:38:55.965Z,9.07
2023-05-18T03:44:01.562Z,7.50
2023-05-18T03:49:07.946Z,9.80
2023-05-18T03:54:16.556Z,8.90
2023-05-18T03:59:21.509Z,9.20
2023-05-18T04:04:27.567Z,9.33
2023-05-18T04:09:31.474Z,10.23
2023-05-18T04:14:36.784Z,10.13
2023-05-18T04:19:40.745Z,9.00
2023-05-18T04:24:45.806Z,14.67
2023-05-18T04:29:52.021Z,9.40
2023-05-18T04:34:58.634Z,11.63
2023-05-18T04:40:07.928Z,12.17
2023-05-18T04:45:17.908Z,9.23
2023-05-18T04:50:23.819Z,8.93
2023-05-18T04:55:28.928Z,12.73
2023-05-18T05:00:44.682Z,8.23
2023-05-18T05:05:48.300Z,8.87
2023-05-18T05:10:51.884Z,9.23
2023-05-18T05:15:57.288Z,7.03
2023-05-18T05:21:02.146Z,9.13
2023-05-18T05:26:06.533Z,8.47
2023-05-18T05:31:11.965Z,8.97
2023-05-18T05:36:15.527Z,6.63
2023-05-18T05:41:19.829Z,8.50
2023-05-18T05:46:26.016Z,8.77
2023-05-18T05:51:31.179Z,11.73
2023-05-18T05:56:34.663Z,8.07
2023-05-18T06:01:40.079Z,6.33
2023-05-18T06:06:44.990Z,8.97
2023-05-18T06:11:49.323Z,7.53
2023-05-18T06:16:55.476Z,16.43
2023-05-18T06:21:59.869Z,18.17
2023-05-18T06:27:06.532Z,10.90
2023-05-18T06:32:40.770Z,12.07
2023-05-18T06:37:47.502Z,9.83
2023-05-18T06:42:54.926Z,9.37
2023-05-18T06:48:47.761Z,11.50
2023-05-18T06:54:04.157Z,9.20
2023-05-18T06:59:36.806Z,10.30
2023-05-18T07:05:01.730Z,10.97
2023-05-18T07:10:17.223Z,9.43
2023-05-18T07:15:30.587Z,8.97
2023-05-18T07:20:42.265Z,9.70
2023-05-18T07:26:02.977Z,12.00
2023-05-18T07:31:33.068Z,14.00
2023-05-18T07:36:48.923Z,10.47
2023-05-18T07:48:39.796Z,11.57
2023-05-18T07:53:46.104Z,10.97
2023-05-18T07:58:50.002Z,13.33
2023-05-18T08:03:55.594Z,12.17
2023-05-18T08:08:59.539Z,10.85
2023-05-18T08:14:03.080Z,8.83
2023-05-18T08:19:07.978Z,10.20
2023-05-18T08:24:11.561Z,7.90
2023-05-18T08:29:15.232Z,8.70
2023-05-18T08:34:20.140Z,8.60
2023-05-18T08:39:23.670Z,9.70
2023-05-18T08:44:32.054Z,10.10
2023-05-18T08:49:37.862Z,9.37
2023-05-18T08:54:42.908Z,10.50
2023-05-18T08:59:46.942Z,9.70
2023-05-18T09:04:52.950Z,10.70
2023-05-18T09:09:58.420Z,8.38
2023-05-18T09:15:02.508Z,9.43
2023-05-18T09:20:10.799Z,8.57
2023-05-18T09:25:16.006Z,10.45
2023-05-18T09:30:19.668Z,9.88
2023-05-18T09:35:26.110Z,9.07
2023-05-18T09:40:30.834Z,11.63
2023-05-18T09:45:34.630Z,10.10
2023-05-18T09:50:40.007Z,7.68
2023-05-18T09:55:49.280Z,10.15
2023-05-18T10:00:57.145Z,9.95
2023-05-18T10:06:05.416Z,7.10
2023-05-18T10:11:09.281Z,6.68
2023-05-18T10:16:13.252Z,6.90
2023-05-18T10:21:19.440Z,12.38
2023-05-18T10:26:28.858Z,6.07
2023-05-18T10:31:33.683Z,7.60
2023-05-18T10:36:39.577Z,8.05
2023-05-18T10:41:45.219Z,10.52
2023-05-18T10:46:49.459Z,9.75
2023-05-18T10:51:56.369Z,12.20
2023-05-18T10:57:02.507Z,7.10
2023-05-18T11:02:06.485Z,12.05
2023-05-18T11:07:14.450Z,12.10
2023-05-18T11:12:19.513Z,14.85
2023-05-18T11:17:23.994Z,21.58
2023-05-18T11:22:42.564Z,11.25
2023-05-18T11:27:46.680Z,15.65
2023-05-18T11:32:52.716Z,12.02
2023-05-18T11:38:08.572Z,9.10
2023-05-18T11:43:20.967Z,10.95
2023-05-18T11:48:24.842Z,10.63
2023-05-18T11:53:31.778Z,10.73
2023-05-18T11:58:35.133Z,13.80
2023-05-18T12:03:41.018Z,11.77
2023-05-18T12:08:46.983Z,10.73
2023-05-18T12:13:52.733Z,11.45
2023-05-18T12:18:56.336Z,13.75
2023-05-18T12:24:02.244Z,9.63
2023-05-18T12:29:06.002Z,23.95
2023-05-18T12:34:11.701Z,7.63
2023-05-18T12:39:17.834Z,12.52
2023-05-18T12:44:22.211Z,9.90
2023-05-18T12:49:25.651Z,11.23
2023-05-18T12:54:31.603Z,12.77
2023-05-18T12:59:34.903Z,12.18
2023-05-18T13:04:38.216Z,9.50
2023-05-18T13:09:48.289Z,11.45
2023-05-18T13:14:54.927Z,9.23
2023-05-18T13:19:59.024Z,14.68
2023-05-18T13:25:03.841Z,12.32
2023-05-18T13:30:09.295Z,7.35
2023-05-18T13:35:13.739Z,10.13
2023-05-18T13:40:19.860Z,9.35
2023-05-18T13:45:23.631Z,9.93
2023-05-18T13:50:27.579Z,9.43
2023-05-18T13:55:33.847Z,15.70
2023-05-18T14:00:38.316Z,10.25
2023-05-18T14:05:42.068Z,13.18
2023-05-18T14:10:48.294Z,9.75
2023-05-18T14:15:52.499Z,13.50
2023-05-18T14:20:57.891Z,11.57
2023-05-18T14:26:03.195Z,9.90
2023-05-18T14:31:07.025Z,10.98
2023-05-18T14:36:11.067Z,11.85
2023-05-18T14:41:16.744Z,11.60
2023-05-18T14:46:20.658Z,10.45
2023-05-18T14:51:24.972Z,9.98
2023-05-18T14:56:30.568Z,10.15
2023-05-18T15:01:34.306Z,16.83
2023-05-18T15:06:39.086Z,13.98
2023-05-18T15:11:44.311Z,13.45
2023-05-18T15:16:48.012Z,11.57
2023-05-18T15:21:51.821Z,9.15
2023-05-18T15:26:57.037Z,11.63
2023-05-18T15:32:01.321Z,13.82
2023-05-18T15:37:05.116Z,13.20
2023-05-18T15:42:10.305Z,16.77
2023-05-18T15:47:14.258Z,10.77
2023-05-18T15:52:17.920Z,10.02
2023-05-18T15:57:23.261Z,12.57
2023-05-18T16:02:27.030Z,10.80
2023-05-18T16:07:30.780Z,14.05
2023-05-18T16:12:36.043Z,11.38
2023-05-18T16:17:39.821Z,11.70
2023-05-18T16:22:43.446Z,15.88
2023-05-18T16:27:48.665Z,13.60
2023-05-18T16:32:52.446Z,13.68
2023-05-18T16:37:56.163Z,11.90
2023-05-18T16:43:01.277Z,11.63
2023-05-18T16:48:05.303Z,11.98
2023-05-18T16:53:09.316Z,15.63
2023-05-18T16:58:14.387Z,11.50
2023-05-18T17:03:18.862Z,10.53
2023-05-18T17:08:23.176Z,9.70
2023-05-18T17:13:28.387Z,13.52
2023-05-18T17:18:32.034Z,9.40
2023-05-18T17:23:35.742Z,9.45
2023-05-18T17:28:40.933Z,13.00
2023-05-18T17:33:47.465Z,12.80
2023-05-18T17:38:51.138Z,12.80
2023-05-18T17:43:56.385Z,10.73
2023-05-18T17:49:02.189Z,21.05
2023-05-18T17:54:05.921Z,11.57
2023-05-18T17:59:11.126Z,10.47
2023-05-18T18:04:15.065Z,11.85
2023-05-18T18:09:19.063Z,10.37
2023-05-18T18:14:24.736Z,8.60
2023-05-18T18:19:28.578Z,9.95
2023-05-18T18:24:33.340Z,10.75
2023-05-18T18:29:38.701Z,9.57
2023-05-18T18:34:42.836Z,12.60
2023-05-18T18:39:47.904Z,13.30
2023-05-18T18:44:57.194Z,13.63
2023-05-18T18:50:01.088Z,13.67
2023-05-18T18:55:05.817Z,16.30
2023-05-18T19:00:14.532Z,14.83
2023-05-18T19:05:28.606Z,12.05
2023-05-18T19:10:35.551Z,12.30
2023-05-18T19:15:41.910Z,12.60
2023-05-18T19:20:48.122Z,14.77
2023-05-18T19:25:56.186Z,14.77
2023-05-18T19:31:05.064Z,15.07
2023-05-18T19:36:11.501Z,14.87
2023-05-18T19:41:15.739Z,16.43
2023-05-18T19:46:21.770Z,14.70
2023-05-18T19:51:25.773Z,17.80
2023-05-18T19:56:29.715Z,17.63
2023-05-18T20:01:35.107Z,18.03
2023-05-18T20:06:39.111Z,15.47
2023-05-18T20:11:42.917Z,15.57
2023-05-18T20:16:48.875Z,15.87
2023-05-18T20:21:52.798Z,18.87
2023-05-18T20:26:56.577Z,19.13
2023-05-18T20:32:01.936Z,19.73
2023-05-18T20:37:10.487Z,22.17
2023-05-18T20:42:15.250Z,16.93
2023-05-18T20:47:21.282Z,19.23
2023-05-18T20:52:25.397Z,16.17
2023-05-18T20:57:30.164Z,16.83
2023-05-18T21:02:35.470Z,18.77
2023-05-18T21:07:42.779Z,18.00
2023-05-18T21:12:46.860Z,23.03
2023-05-18T21:17:52.167Z,17.77
2023-05-18T21:22:55.921Z,18.77
2023-05-18T21:27:59.711Z,15.53
2023-05-18T21:33:05.442Z,22.00
2023-05-18T21:38:09.255Z,20.47
2023-05-18T21:43:12.991Z,21.00
2023-05-18T21:48:18.262Z,20.63
2023-05-18T21:53:22.139Z,23.63
2023-05-18T21:58:26.005Z,25.87
2023-05-18T22:03:31.351Z,21.40
2023-05-18T22:08:35.148Z,27.93
2023-05-18T22:13:39.067Z,24.20
2023-05-18T22:18:44.401Z,27.87
2023-05-18T22:23:48.178Z,22.07
2023-05-18T22:28:51.954Z,19.57
2023-05-18T22:33:57.220Z,21.40
2023-05-18T22:39:01.030Z,22.27
2023-05-18T22:44:05.174Z,24.43
2023-05-18T22:49:10.712Z,21.30
2023-05-18T22:54:14.438Z,25.17
2023-05-18T22:59:20.639Z,22.03
2023-05-18T23:04:26.014Z,24.77
2023-05-18T23:09:30.806Z,23.97
2023-05-18T23:14:34.804Z,21.37
2023-05-18T23:19:41.150Z,21.87
2023-05-18T23:24:45.016Z,23.67
2023-05-18T23:29:48.957Z,27.43
2023-05-18T23:34:56.428Z,21.93
2023-05-18T23:40:02.950Z,24.70
2023-05-18T23:45:10.709Z,22.37
2023-05-18T23:50:17.297Z,21.63
2023-05-18T23:55:24.370Z,26.73
